sensor_id;sensor_type;location;lat;lon;timestamp;temperature;humidity
22185;DHT22;11258;52.516;13.318;2022-09-21T00:00:26;10.30;99.90
22185;DHT22;11258;52.516;13.318;2022-09-21T00:02:55;10.30;99.90
22185;DHT22;11258;52.516;13.318;2022-09-21T00:05:21;10.30;99.90
22185;DHT22;11258;52.516;13.318;2022-09-21T00:07:47;10.30;99.90
22185;DHT22;11258;52.516;13.318;2022-09-21T00:10:12;10.20;99.90
22185;DHT22;11258;52.516;13.318;2022-09-21T00:12:38;10.20;99.90
22185;DHT22;11258;52.516;13.318;2022-09-21T00:15:08;10.20;99.90
22185;DHT22;11258;52.516;13.318;2022-09-21T00:17:34;10.20;99.90
22185;DHT22;11258;52.516;13.318;2022-09-21T00:20:00;10.20;99.90
22185;DHT22;11258;52.516;13.318;2022-09-21T00:22:28;10.20;99.90
22185;DHT22;11258;52.516;13.318;2022-09-21T00:24:53;10.20;99.90
22185;DHT22;11258;52.516;13.318;2022-09-21T00:27:20;10.20;99.90
22185;DHT22;11258;52.516;13.318;2022-09-21T00:29:46;10.20;99.90
22185;DHT22;11258;52.516;13.318;2022-09-21T00:32:13;10.10;99.90
22185;DHT22;11258;52.516;13.318;2022-09-21T00:34:40;10.10;99.90
22185;DHT22;11258;52.516;13.318;2022-09-21T00:37:06;10.10;99.90
22185;DHT22;11258;52.516;13.318;2022-09-21T00:39:33;10.10;99.90
22185;DHT22;11258;52.516;13.318;2022-09-21T00:41:59;10.10;99.90
22185;DHT22;11258;52.516;13.318;2022-09-21T00:44:29;10.10;99.90
22185;DHT22;11258;52.516;13.318;2022-09-21T00:46:59;10.10;99.90
22185;DHT22;11258;52.516;13.318;2022-09-21T00:49:26;10.10;99.90
22185;DHT22;11258;52.516;13.318;2022-09-21T00:51:52;10.10;99.90
22185;DHT22;11258;52.516;13.318;2022-09-21T00:54:28;10.10;99.90
22185;DHT22;11258;52.516;13.318;2022-09-21T00:56:55;10.00;99.90
22185;DHT22;11258;52.516;13.318;2022-09-21T00:59:24;10.10;99.90
22185;DHT22;11258;52.516;13.318;2022-09-21T01:01:49;10.10;99.90
22185;DHT22;11258;52.516;13.318;2022-09-21T01:04:15;10.10;99.90
22185;DHT22;11258;52.516;13.318;2022-09-21T01:06:43;10.00;99.90
22185;DHT22;11258;52.516;13.318;2022-09-21T01:09:09;10.00;99.90
22185;DHT22;11258;52.516;13.318;2022-09-21T01:14:30;10.00;99.90
22185;DHT22;11258;52.516;13.318;2022-09-21T01:30:39;9.90;99.90
22185;DHT22;11258;52.516;13.318;2022-09-21T01:33:20;9.90;99.90
22185;DHT22;11258;52.516;13.318;2022-09-21T01:35:55;9.90;99.90
22185;DHT22;11258;52.516;13.318;2022-09-21T01:38:44;9.90;99.90
22185;DHT22;11258;52.516;13.318;2022-09-21T01:41:14;9.80;99.90
22185;DHT22;11258;52.516;13.318;2022-09-21T01:43:44;9.80;99.90
22185;DHT22;11258;52.516;13.318;2022-09-21T01:46:16;9.90;99.90
22185;DHT22;11258;52.516;13.318;2022-09-21T01:48:46;9.90;99.90
22185;DHT22;11258;52.516;13.318;2022-09-21T01:51:14;9.80;99.90
22185;DHT22;11258;52.516;13.318;2022-09-21T01:56:27;9.70;99.90
22185;DHT22;11258;52.516;13.318;2022-09-21T02:01:31;9.80;99.90
22185;DHT22;11258;52.516;13.318;2022-09-21T02:04:03;9.70;99.90
22185;DHT22;11258;52.516;13.318;2022-09-21T02:06:30;9.70;99.90
22185;DHT22;11258;52.516;13.318;2022-09-21T02:08:56;9.70;99.90
22185;DHT22;11258;52.516;13.318;2022-09-21T02:11:22;9.60;99.90
22185;DHT22;11258;52.516;13.318;2022-09-21T02:13:51;9.60;99.90
22185;DHT22;11258;52.516;13.318;2022-09-21T02:22:06;9.60;99.90
22185;DHT22;11258;52.516;13.318;2022-09-21T02:24:50;9.60;99.90
22185;DHT22;11258;52.516;13.318;2022-09-21T02:27:38;9.60;99.90
22185;DHT22;11258;52.516;13.318;2022-09-21T02:30:18;9.60;99.90
22185;DHT22;11258;52.516;13.318;2022-09-21T02:35:41;9.50;99.90
22185;DHT22;11258;52.516;13.318;2022-09-21T02:43:17;9.40;99.90
22185;DHT22;11258;52.516;13.318;2022-09-21T02:45:50;9.40;99.90
22185;DHT22;11258;52.516;13.318;2022-09-21T02:48:25;9.50;99.90
22185;DHT22;11258;52.516;13.318;2022-09-21T02:50:56;9.50;99.90
22185;DHT22;11258;52.516;13.318;2022-09-21T02:53:27;9.50;99.90
22185;DHT22;11258;52.516;13.318;2022-09-21T02:55:56;9.50;99.90
22185;DHT22;11258;52.516;13.318;2022-09-21T02:58:25;9.40;99.90
22185;DHT22;11258;52.516;13.318;2022-09-21T03:00:51;9.40;99.90
22185;DHT22;11258;52.516;13.318;2022-09-21T03:03:21;9.40;99.90
22185;DHT22;11258;52.516;13.318;2022-09-21T03:05:50;9.40;99.90
22185;DHT22;11258;52.516;13.318;2022-09-21T03:08:16;9.40;99.90
22185;DHT22;11258;52.516;13.318;2022-09-21T03:10:43;9.30;99.90
22185;DHT22;11258;52.516;13.318;2022-09-21T03:13:09;9.30;99.90
22185;DHT22;11258;52.516;13.318;2022-09-21T03:15:38;9.40;99.90
22185;DHT22;11258;52.516;13.318;2022-09-21T03:18:05;9.30;99.90
22185;DHT22;11258;52.516;13.318;2022-09-21T03:20:34;9.30;99.90
22185;DHT22;11258;52.516;13.318;2022-09-21T03:23:00;9.30;99.90
22185;DHT22;11258;52.516;13.318;2022-09-21T03:25:27;9.30;99.90
22185;DHT22;11258;52.516;13.318;2022-09-21T03:27:53;9.30;99.90
22185;DHT22;11258;52.516;13.318;2022-09-21T03:30:23;9.30;99.90
22185;DHT22;11258;52.516;13.318;2022-09-21T03:32:50;9.30;99.90
22185;DHT22;11258;52.516;13.318;2022-09-21T03:35:17;9.30;99.90
22185;DHT22;11258;52.516;13.318;2022-09-21T03:37:43;9.30;99.90
22185;DHT22;11258;52.516;13.318;2022-09-21T03:40:09;9.30;99.90
22185;DHT22;11258;52.516;13.318;2022-09-21T03:42:37;9.30;99.90
22185;DHT22;11258;52.516;13.318;2022-09-21T03:45:03;9.30;99.90
22185;DHT22;11258;52.516;13.318;2022-09-21T03:47:28;9.30;99.90
22185;DHT22;11258;52.516;13.318;2022-09-21T03:49:54;9.30;99.90
22185;DHT22;11258;52.516;13.318;2022-09-21T03:52:19;9.30;99.90
22185;DHT22;11258;52.516;13.318;2022-09-21T03:54:45;9.30;99.90
22185;DHT22;11258;52.516;13.318;2022-09-21T03:57:11;9.20;99.90
22185;DHT22;11258;52.516;13.318;2022-09-21T03:59:36;9.20;99.90
22185;DHT22;11258;52.516;13.318;2022-09-21T04:02:02;9.20;99.90
22185;DHT22;11258;52.516;13.318;2022-09-21T04:04:27;9.20;99.90
22185;DHT22;11258;52.516;13.318;2022-09-21T04:06:53;9.20;99.90
22185;DHT22;11258;52.516;13.318;2022-09-21T04:09:18;9.20;99.90
22185;DHT22;11258;52.516;13.318;2022-09-21T04:11:44;9.10;99.90
22185;DHT22;11258;52.516;13.318;2022-09-21T04:14:11;9.10;99.90
22185;DHT22;11258;52.516;13.318;2022-09-21T04:16:37;9.00;99.90
22185;DHT22;11258;52.516;13.318;2022-09-21T04:19:02;9.10;99.90
22185;DHT22;11258;52.516;13.318;2022-09-21T04:21:28;9.10;99.90
22185;DHT22;11258;52.516;13.318;2022-09-21T04:23:54;9.00;99.90
22185;DHT22;11258;52.516;13.318;2022-09-21T04:28:51;9.10;99.90
22185;DHT22;11258;52.516;13.318;2022-09-21T04:31:17;9.00;99.90
22185;DHT22;11258;52.516;13.318;2022-09-21T04:33:42;9.00;99.90
22185;DHT22;11258;52.516;13.318;2022-09-21T04:36:08;9.00;99.90
22185;DHT22;11258;52.516;13.318;2022-09-21T04:38:34;9.00;99.90
22185;DHT22;11258;52.516;13.318;2022-09-21T04:40:59;9.00;99.90
22185;DHT22;11258;52.516;13.318;2022-09-21T04:43:25;9.00;99.90
22185;DHT22;11258;52.516;13.318;2022-09-21T04:45:51;9.00;99.90
22185;DHT22;11258;52.516;13.318;2022-09-21T04:48:17;9.00;99.90
22185;DHT22;11258;52.516;13.318;2022-09-21T04:50:46;9.00;99.90
22185;DHT22;11258;52.516;13.318;2022-09-21T04:53:12;9.00;99.90
22185;DHT22;11258;52.516;13.318;2022-09-21T04:55:37;8.90;99.90
22185;DHT22;11258;52.516;13.318;2022-09-21T04:58:03;9.00;99.90
22185;DHT22;11258;52.516;13.318;2022-09-21T05:00:28;9.00;99.90
22185;DHT22;11258;52.516;13.318;2022-09-21T05:02:54;9.00;99.90
22185;DHT22;11258;52.516;13.318;2022-09-21T05:05:19;9.00;99.90
22185;DHT22;11258;52.516;13.318;2022-09-21T05:07:45;9.10;99.90
22185;DHT22;11258;52.516;13.318;2022-09-21T05:10:10;9.10;99.90
22185;DHT22;11258;52.516;13.318;2022-09-21T05:12:36;9.10;99.90
22185;DHT22;11258;52.516;13.318;2022-09-21T05:15:02;9.20;99.90
22185;DHT22;11258;52.516;13.318;2022-09-21T05:17:28;9.20;99.90
22185;DHT22;11258;52.516;13.318;2022-09-21T05:19:54;9.20;99.90
22185;DHT22;11258;52.516;13.318;2022-09-21T05:22:20;9.30;99.90
22185;DHT22;11258;52.516;13.318;2022-09-21T05:24:45;9.30;99.90
22185;DHT22;11258;52.516;13.318;2022-09-21T05:27:11;9.30;99.90
22185;DHT22;11258;52.516;13.318;2022-09-21T05:29:38;9.40;99.90
22185;DHT22;11258;52.516;13.318;2022-09-21T05:32:29;9.40;99.90
22185;DHT22;11258;52.516;13.318;2022-09-21T05:37:46;9.50;99.90
22185;DHT22;11258;52.516;13.318;2022-09-21T05:40:13;9.60;99.90
22185;DHT22;11258;52.516;13.318;2022-09-21T05:42:39;9.70;99.90
22185;DHT22;11258;52.516;13.318;2022-09-21T05:45:05;9.80;99.90
22185;DHT22;11258;52.516;13.318;2022-09-21T05:47:39;10.40;99.90
22185;DHT22;11258;52.516;13.318;2022-09-21T05:50:25;11.80;99.90
22185;DHT22;11258;52.516;13.318;2022-09-21T05:53:03;13.70;99.90
22185;DHT22;11258;52.516;13.318;2022-09-21T05:58:20;16.30;99.90
22185;DHT22;11258;52.516;13.318;2022-09-21T06:03:28;14.50;99.90
22185;DHT22;11258;52.516;13.318;2022-09-21T06:05:55;13.70;99.90
22185;DHT22;11258;52.516;13.318;2022-09-21T06:08:20;13.00;99.90
22185;DHT22;11258;52.516;13.318;2022-09-21T06:10:46;12.70;99.90
22185;DHT22;11258;52.516;13.318;2022-09-21T06:13:13;12.50;99.90
22185;DHT22;11258;52.516;13.318;2022-09-21T06:15:38;12.40;99.90
22185;DHT22;11258;52.516;13.318;2022-09-21T06:18:05;12.30;99.90
22185;DHT22;11258;52.516;13.318;2022-09-21T06:20:31;12.10;99.90
22185;DHT22;11258;52.516;13.318;2022-09-21T06:23:08;12.00;99.90
22185;DHT22;11258;52.516;13.318;2022-09-21T06:25:34;11.80;99.90
22185;DHT22;11258;52.516;13.318;2022-09-21T06:28:04;11.70;99.90
22185;DHT22;11258;52.516;13.318;2022-09-21T06:30:31;11.60;99.90
22185;DHT22;11258;52.516;13.318;2022-09-21T06:33:00;11.50;99.90
22185;DHT22;11258;52.516;13.318;2022-09-21T06:35:27;11.60;99.90
22185;DHT22;11258;52.516;13.318;2022-09-21T06:38:01;11.70;99.90
22185;DHT22;11258;52.516;13.318;2022-09-21T06:40:27;11.70;99.90
22185;DHT22;11258;52.516;13.318;2022-09-21T06:43:01;11.60;99.90
22185;DHT22;11258;52.516;13.318;2022-09-21T06:45:28;11.60;99.90
22185;DHT22;11258;52.516;13.318;2022-09-21T06:47:54;11.60;99.90
22185;DHT22;11258;52.516;13.318;2022-09-21T06:50:20;11.50;99.90
22185;DHT22;11258;52.516;13.318;2022-09-21T06:52:46;11.40;99.90
22185;DHT22;11258;52.516;13.318;2022-09-21T06:55:12;11.30;99.90
22185;DHT22;11258;52.516;13.318;2022-09-21T06:57:38;11.30;99.90
22185;DHT22;11258;52.516;13.318;2022-09-21T07:00:06;11.30;99.90
22185;DHT22;11258;52.516;13.318;2022-09-21T07:02:32;11.30;99.90
22185;DHT22;11258;52.516;13.318;2022-09-21T07:04:58;11.50;99.90
22185;DHT22;11258;52.516;13.318;2022-09-21T07:07:24;11.60;99.90
22185;DHT22;11258;52.516;13.318;2022-09-21T07:09:51;11.80;99.90
22185;DHT22;11258;52.516;13.318;2022-09-21T07:12:17;12.00;99.90
22185;DHT22;11258;52.516;13.318;2022-09-21T07:14:43;12.20;99.90
22185;DHT22;11258;52.516;13.318;2022-09-21T07:17:11;12.40;99.90
22185;DHT22;11258;52.516;13.318;2022-09-21T07:19:39;12.50;99.90
22185;DHT22;11258;52.516;13.318;2022-09-21T07:22:05;12.70;99.90
22185;DHT22;11258;52.516;13.318;2022-09-21T07:24:30;13.00;99.90
22185;DHT22;11258;52.516;13.318;2022-09-21T07:26:56;13.80;99.90
22185;DHT22;11258;52.516;13.318;2022-09-21T07:29:22;14.40;99.90
22185;DHT22;11258;52.516;13.318;2022-09-21T07:31:48;14.40;99.90
22185;DHT22;11258;52.516;13.318;2022-09-21T07:34:14;14.20;99.90
22185;DHT22;11258;52.516;13.318;2022-09-21T07:36:39;14.10;99.90
22185;DHT22;11258;52.516;13.318;2022-09-21T07:39:08;14.20;99.90
22185;DHT22;11258;52.516;13.318;2022-09-21T07:41:34;14.30;99.90
22185;DHT22;11258;52.516;13.318;2022-09-21T07:44:00;14.50;99.90
22185;DHT22;11258;52.516;13.318;2022-09-21T07:46:25;14.90;99.90
22185;DHT22;11258;52.516;13.318;2022-09-21T07:48:55;15.90;99.90
22185;DHT22;11258;52.516;13.318;2022-09-21T07:51:23;17.20;99.90
22185;DHT22;11258;52.516;13.318;2022-09-21T07:53:53;18.90;99.90
22185;DHT22;11258;52.516;13.318;2022-09-21T07:56:21;19.00;99.90
22185;DHT22;11258;52.516;13.318;2022-09-21T07:58:47;18.60;99.90
22185;DHT22;11258;52.516;13.318;2022-09-21T08:01:33;18.00;99.90
22185;DHT22;11258;52.516;13.318;2022-09-21T08:04:00;17.30;99.90
22185;DHT22;11258;52.516;13.318;2022-09-21T08:06:28;17.00;99.90
22185;DHT22;11258;52.516;13.318;2022-09-21T08:08:54;16.80;99.90
22185;DHT22;11258;52.516;13.318;2022-09-21T08:11:21;16.90;99.90
22185;DHT22;11258;52.516;13.318;2022-09-21T08:13:50;16.90;99.90
22185;DHT22;11258;52.516;13.318;2022-09-21T08:16:16;17.00;99.90
22185;DHT22;11258;52.516;13.318;2022-09-21T08:18:42;16.90;99.90
22185;DHT22;11258;52.516;13.318;2022-09-21T08:21:09;16.80;99.90
22185;DHT22;11258;52.516;13.318;2022-09-21T08:23:35;16.60;99.90
22185;DHT22;11258;52.516;13.318;2022-09-21T08:26:05;16.20;99.90
22185;DHT22;11258;52.516;13.318;2022-09-21T08:28:32;15.80;99.90
22185;DHT22;11258;52.516;13.318;2022-09-21T08:31:06;15.50;99.90
22185;DHT22;11258;52.516;13.318;2022-09-21T08:33:33;15.30;99.90
22185;DHT22;11258;52.516;13.318;2022-09-21T08:36:00;15.30;99.90
22185;DHT22;11258;52.516;13.318;2022-09-21T08:38:30;15.30;99.90
22185;DHT22;11258;52.516;13.318;2022-09-21T08:40:57;15.40;99.90
22185;DHT22;11258;52.516;13.318;2022-09-21T08:43:39;15.10;99.90
22185;DHT22;11258;52.516;13.318;2022-09-21T08:46:11;15.20;99.90
22185;DHT22;11258;52.516;13.318;2022-09-21T08:48:45;15.20;99.90
22185;DHT22;11258;52.516;13.318;2022-09-21T08:51:19;15.30;99.90
22185;DHT22;11258;52.516;13.318;2022-09-21T08:53:48;15.30;99.90
22185;DHT22;11258;52.516;13.318;2022-09-21T08:56:15;15.60;99.90
22185;DHT22;11258;52.516;13.318;2022-09-21T08:58:41;15.70;99.90
22185;DHT22;11258;52.516;13.318;2022-09-21T09:15:30;16.80;99.90
22185;DHT22;11258;52.516;13.318;2022-09-21T09:18:21;17.10;99.90
22185;DHT22;11258;52.516;13.318;2022-09-21T09:21:15;17.70;99.90
22185;DHT22;11258;52.516;13.318;2022-09-21T09:23:40;18.10;99.90
22185;DHT22;11258;52.516;13.318;2022-09-21T09:26:31;17.90;99.90
22185;DHT22;11258;52.516;13.318;2022-09-21T09:29:02;17.90;99.90
22185;DHT22;11258;52.516;13.318;2022-09-21T09:31:33;17.70;99.90
22185;DHT22;11258;52.516;13.318;2022-09-21T09:34:10;17.90;99.90
22185;DHT22;11258;52.516;13.318;2022-09-21T09:36:39;18.10;99.90
22185;DHT22;11258;52.516;13.318;2022-09-21T09:39:15;18.30;99.90
22185;DHT22;11258;52.516;13.318;2022-09-21T09:42:01;18.60;99.90
22185;DHT22;11258;52.516;13.318;2022-09-21T09:47:18;18.90;99.90
22185;DHT22;11258;52.516;13.318;2022-09-21T09:52:31;18.80;99.90
22185;DHT22;11258;52.516;13.318;2022-09-21T09:55:09;18.90;99.90
22185;DHT22;11258;52.516;13.318;2022-09-21T09:57:37;18.80;99.90
22185;DHT22;11258;52.516;13.318;2022-09-21T10:00:06;18.90;99.90
22185;DHT22;11258;52.516;13.318;2022-09-21T10:02:52;18.50;99.90
22185;DHT22;11258;52.516;13.318;2022-09-21T10:05:32;18.60;99.90
22185;DHT22;11258;52.516;13.318;2022-09-21T10:07:58;18.90;99.90
22185;DHT22;11258;52.516;13.318;2022-09-21T10:10:38;18.60;99.90
22185;DHT22;11258;52.516;13.318;2022-09-21T10:13:26;18.50;99.90
22185;DHT22;11258;52.516;13.318;2022-09-21T10:16:02;18.20;99.90
22185;DHT22;11258;52.516;13.318;2022-09-21T10:18:38;18.10;99.90
22185;DHT22;11258;52.516;13.318;2022-09-21T10:21:07;17.80;99.90
22185;DHT22;11258;52.516;13.318;2022-09-21T10:23:35;17.80;99.90
22185;DHT22;11258;52.516;13.318;2022-09-21T10:26:04;17.70;99.90
22185;DHT22;11258;52.516;13.318;2022-09-21T10:28:32;17.80;99.90
22185;DHT22;11258;52.516;13.318;2022-09-21T10:31:16;17.70;99.90
22185;DHT22;11258;52.516;13.318;2022-09-21T10:34:04;17.60;99.90
22185;DHT22;11258;52.516;13.318;2022-09-21T10:36:33;17.90;99.90
22185;DHT22;11258;52.516;13.318;2022-09-21T10:39:20;18.00;99.90
22185;DHT22;11258;52.516;13.318;2022-09-21T10:41:53;18.40;99.90
22185;DHT22;11258;52.516;13.318;2022-09-21T10:44:22;18.90;99.90
22185;DHT22;11258;52.516;13.318;2022-09-21T10:46:50;19.30;99.90
22185;DHT22;11258;52.516;13.318;2022-09-21T10:49:25;19.40;99.90
22185;DHT22;11258;52.516;13.318;2022-09-21T10:51:54;19.30;99.90
22185;DHT22;11258;52.516;13.318;2022-09-21T10:54:25;19.00;99.90
22185;DHT22;11258;52.516;13.318;2022-09-21T10:56:57;18.70;99.90
22185;DHT22;11258;52.516;13.318;2022-09-21T10:59:35;18.30;99.90
22185;DHT22;11258;52.516;13.318;2022-09-21T11:02:07;18.10;99.90
22185;DHT22;11258;52.516;13.318;2022-09-21T11:04:49;18.00;99.90
22185;DHT22;11258;52.516;13.318;2022-09-21T11:08:01;18.20;99.90
22185;DHT22;11258;52.516;13.318;2022-09-21T11:10:18;18.60;99.90
22185;DHT22;11258;52.516;13.318;2022-09-21T11:12:50;18.90;99.90
22185;DHT22;11258;52.516;13.318;2022-09-21T11:15:28;19.20;99.90
22185;DHT22;11258;52.516;13.318;2022-09-21T11:18:17;19.30;99.90
22185;DHT22;11258;52.516;13.318;2022-09-21T11:20:58;19.60;99.90
22185;DHT22;11258;52.516;13.318;2022-09-21T11:23:48;19.90;99.90
22185;DHT22;11258;52.516;13.318;2022-09-21T11:26:32;19.80;99.90
22185;DHT22;11258;52.516;13.318;2022-09-21T11:29:23;19.40;99.90
22185;DHT22;11258;52.516;13.318;2022-09-21T11:32:25;19.10;99.90
22185;DHT22;11258;52.516;13.318;2022-09-21T11:38:02;18.70;99.90
22185;DHT22;11258;52.516;13.318;2022-09-21T11:40:54;18.50;99.90
22185;DHT22;11258;52.516;13.318;2022-09-21T11:55:37;18.30;99.90
22185;DHT22;11258;52.516;13.318;2022-09-21T12:06:39;18.20;99.90
22185;DHT22;11258;52.516;13.318;2022-09-21T12:12:09;18.30;99.90
22185;DHT22;11258;52.516;13.318;2022-09-21T12:23:00;18.70;99.90
22185;DHT22;11258;52.516;13.318;2022-09-21T12:25:31;18.50;99.90
22185;DHT22;11258;52.516;13.318;2022-09-21T12:28:16;18.40;99.90
22185;DHT22;11258;52.516;13.318;2022-09-21T12:30:47;18.00;99.90
22185;DHT22;11258;52.516;13.318;2022-09-21T12:33:19;17.60;99.90
22185;DHT22;11258;52.516;13.318;2022-09-21T12:38:38;17.60;99.90
22185;DHT22;11258;52.516;13.318;2022-09-21T12:41:19;17.60;99.90
22185;DHT22;11258;52.516;13.318;2022-09-21T12:46:49;17.90;99.90
22185;DHT22;11258;52.516;13.318;2022-09-21T12:49:19;18.20;99.90
22185;DHT22;11258;52.516;13.318;2022-09-21T12:51:59;18.30;99.90
22185;DHT22;11258;52.516;13.318;2022-09-21T12:54:47;18.40;99.90
22185;DHT22;11258;52.516;13.318;2022-09-21T12:57:39;18.20;99.90
22185;DHT22;11258;52.516;13.318;2022-09-21T13:00:11;18.10;99.90
22185;DHT22;11258;52.516;13.318;2022-09-21T13:05:42;17.80;99.90
22185;DHT22;11258;52.516;13.318;2022-09-21T13:10:45;17.80;99.90
22185;DHT22;11258;52.516;13.318;2022-09-21T13:13:31;17.70;99.90
22185;DHT22;11258;52.516;13.318;2022-09-21T13:15:58;17.20;99.90
22185;DHT22;11258;52.516;13.318;2022-09-21T13:18:28;17.10;99.90
22185;DHT22;11258;52.516;13.318;2022-09-21T13:20:57;17.10;99.90
22185;DHT22;11258;52.516;13.318;2022-09-21T13:26:09;17.00;99.90
22185;DHT22;11258;52.516;13.318;2022-09-21T13:34:21;16.90;99.90
22185;DHT22;11258;52.516;13.318;2022-09-21T13:44:58;17.10;99.90
22185;DHT22;11258;52.516;13.318;2022-09-21T13:49:55;16.90;99.90
22185;DHT22;11258;52.516;13.318;2022-09-21T13:52:26;16.80;99.90
22185;DHT22;11258;52.516;13.318;2022-09-21T13:54:56;16.60;99.90
22185;DHT22;11258;52.516;13.318;2022-09-21T14:02:58;16.60;99.90
22185;DHT22;11258;52.516;13.318;2022-09-21T14:05:43;16.60;99.90
22185;DHT22;11258;52.516;13.318;2022-09-21T14:13:37;16.60;99.90
22185;DHT22;11258;52.516;13.318;2022-09-21T14:24:35;16.80;99.90
22185;DHT22;11258;52.516;13.318;2022-09-21T14:27:36;16.80;99.90
22185;DHT22;11258;52.516;13.318;2022-09-21T14:30:18;16.80;99.90
22185;DHT22;11258;52.516;13.318;2022-09-21T14:33:45;16.90;99.90
22185;DHT22;11258;52.516;13.318;2022-09-21T14:35:51;17.00;99.90
22185;DHT22;11258;52.516;13.318;2022-09-21T14:38:25;17.10;99.90
22185;DHT22;11258;52.516;13.318;2022-09-21T14:40:58;17.00;99.90
22185;DHT22;11258;52.516;13.318;2022-09-21T14:43:29;17.00;99.90
22185;DHT22;11258;52.516;13.318;2022-09-21T14:49:12;16.80;99.90
22185;DHT22;11258;52.516;13.318;2022-09-21T14:51:59;16.70;99.90
22185;DHT22;11258;52.516;13.318;2022-09-21T14:54:47;16.60;99.90
22185;DHT22;11258;52.516;13.318;2022-09-21T14:57:34;16.50;99.90
22185;DHT22;11258;52.516;13.318;2022-09-21T15:00:24;16.50;99.90
22185;DHT22;11258;52.516;13.318;2022-09-21T15:12:11;16.40;99.90
22185;DHT22;11258;52.516;13.318;2022-09-21T15:14:55;16.50;99.90
22185;DHT22;11258;52.516;13.318;2022-09-21T15:17:27;16.40;99.90
22185;DHT22;11258;52.516;13.318;2022-09-21T15:19:58;16.50;99.90
22185;DHT22;11258;52.516;13.318;2022-09-21T15:22:25;16.40;99.90
22185;DHT22;11258;52.516;13.318;2022-09-21T15:24:53;16.50;99.90
22185;DHT22;11258;52.516;13.318;2022-09-21T15:27:21;16.40;99.90
22185;DHT22;11258;52.516;13.318;2022-09-21T15:29:53;16.40;99.90
22185;DHT22;11258;52.516;13.318;2022-09-21T15:32:38;16.30;99.90
22185;DHT22;11258;52.516;13.318;2022-09-21T15:35:31;16.20;99.90
22185;DHT22;11258;52.516;13.318;2022-09-21T15:37:58;16.20;99.90
22185;DHT22;11258;52.516;13.318;2022-09-21T15:40:35;16.10;99.90
22185;DHT22;11258;52.516;13.318;2022-09-21T15:46:08;16.10;99.90
22185;DHT22;11258;52.516;13.318;2022-09-21T15:48:39;16.00;99.90
22185;DHT22;11258;52.516;13.318;2022-09-21T15:51:33;15.90;99.90
22185;DHT22;11258;52.516;13.318;2022-09-21T15:54:24;15.90;99.90
22185;DHT22;11258;52.516;13.318;2022-09-21T15:56:51;15.80;99.90
22185;DHT22;11258;52.516;13.318;2022-09-21T15:59:19;15.80;99.90
22185;DHT22;11258;52.516;13.318;2022-09-21T16:01:47;15.80;99.90
22185;DHT22;11258;52.516;13.318;2022-09-21T16:04:17;15.80;99.90
22185;DHT22;11258;52.516;13.318;2022-09-21T16:07:05;15.70;99.90
22185;DHT22;11258;52.516;13.318;2022-09-21T16:09:38;15.70;99.90
22185;DHT22;11258;52.516;13.318;2022-09-21T16:15:17;15.70;99.90
22185;DHT22;11258;52.516;13.318;2022-09-21T16:17:55;15.70;99.90
22185;DHT22;11258;52.516;13.318;2022-09-21T16:20:24;15.70;99.90
22185;DHT22;11258;52.516;13.318;2022-09-21T16:22:52;15.70;99.90
22185;DHT22;11258;52.516;13.318;2022-09-21T16:27:56;15.60;99.90
22185;DHT22;11258;52.516;13.318;2022-09-21T16:30:49;15.60;99.90
22185;DHT22;11258;52.516;13.318;2022-09-21T16:36:50;15.50;99.90
22185;DHT22;11258;52.516;13.318;2022-09-21T16:38:53;15.50;99.90
22185;DHT22;11258;52.516;13.318;2022-09-21T16:41:20;15.40;99.90
22185;DHT22;11258;52.516;13.318;2022-09-21T16:43:46;15.40;99.90
22185;DHT22;11258;52.516;13.318;2022-09-21T16:46:13;15.30;99.90
22185;DHT22;11258;52.516;13.318;2022-09-21T16:48:39;15.30;99.90
22185;DHT22;11258;52.516;13.318;2022-09-21T16:51:12;15.20;99.90
22185;DHT22;11258;52.516;13.318;2022-09-21T16:53:38;15.20;99.90
22185;DHT22;11258;52.516;13.318;2022-09-21T16:56:04;15.20;99.90
22185;DHT22;11258;52.516;13.318;2022-09-21T16:58:31;15.10;99.90
22185;DHT22;11258;52.516;13.318;2022-09-21T17:00:57;15.10;99.90
22185;DHT22;11258;52.516;13.318;2022-09-21T17:03:22;15.00;99.90
22185;DHT22;11258;52.516;13.318;2022-09-21T17:05:48;15.00;99.90
22185;DHT22;11258;52.516;13.318;2022-09-21T17:08:14;14.90;99.90
22185;DHT22;11258;52.516;13.318;2022-09-21T17:10:43;14.90;99.90
22185;DHT22;11258;52.516;13.318;2022-09-21T17:13:10;14.80;99.90
22185;DHT22;11258;52.516;13.318;2022-09-21T17:15:38;14.80;99.90
22185;DHT22;11258;52.516;13.318;2022-09-21T17:18:05;14.70;99.90
22185;DHT22;11258;52.516;13.318;2022-09-21T17:20:36;14.70;99.90
22185;DHT22;11258;52.516;13.318;2022-09-21T17:23:02;14.60;99.90
22185;DHT22;11258;52.516;13.318;2022-09-21T17:25:29;14.50;99.90
22185;DHT22;11258;52.516;13.318;2022-09-21T17:27:55;14.50;99.90
22185;DHT22;11258;52.516;13.318;2022-09-21T17:30:24;14.50;99.90
22185;DHT22;11258;52.516;13.318;2022-09-21T17:32:51;14.40;99.90
22185;DHT22;11258;52.516;13.318;2022-09-21T17:35:24;14.40;99.90
22185;DHT22;11258;52.516;13.318;2022-09-21T17:37:53;14.30;99.90
22185;DHT22;11258;52.516;13.318;2022-09-21T17:40:19;14.30;99.90
22185;DHT22;11258;52.516;13.318;2022-09-21T17:42:45;14.30;99.90
22185;DHT22;11258;52.516;13.318;2022-09-21T17:47:44;14.20;99.90
22185;DHT22;11258;52.516;13.318;2022-09-21T17:52:40;14.10;99.90
22185;DHT22;11258;52.516;13.318;2022-09-21T17:55:24;14.10;99.90
22185;DHT22;11258;52.516;13.318;2022-09-21T17:58:18;14.10;99.90
22185;DHT22;11258;52.516;13.318;2022-09-21T18:01:05;14.10;99.90
22185;DHT22;11258;52.516;13.318;2022-09-21T18:03:36;14.00;99.90
22185;DHT22;11258;52.516;13.318;2022-09-21T18:06:07;14.00;99.90
22185;DHT22;11258;52.516;13.318;2022-09-21T18:08:34;14.00;99.90
22185;DHT22;11258;52.516;13.318;2022-09-21T18:22:40;13.80;99.90
22185;DHT22;11258;52.516;13.318;2022-09-21T18:25:22;13.70;99.90
22185;DHT22;11258;52.516;13.318;2022-09-21T18:27:51;13.70;99.90
22185;DHT22;11258;52.516;13.318;2022-09-21T18:30:17;13.60;99.90
22185;DHT22;11258;52.516;13.318;2022-09-21T18:32:52;13.60;99.90
22185;DHT22;11258;52.516;13.318;2022-09-21T18:35:42;13.50;99.90
22185;DHT22;11258;52.516;13.318;2022-09-21T18:38:21;13.50;99.90
22185;DHT22;11258;52.516;13.318;2022-09-21T18:46:25;13.50;99.90
22185;DHT22;11258;52.516;13.318;2022-09-21T18:49:23;13.40;99.90
22185;DHT22;11258;52.516;13.318;2022-09-21T18:54:24;13.40;99.90
22185;DHT22;11258;52.516;13.318;2022-09-21T18:56:53;13.30;99.90
22185;DHT22;11258;52.516;13.318;2022-09-21T18:59:20;13.20;99.90
22185;DHT22;11258;52.516;13.318;2022-09-21T19:01:46;13.20;99.90
22185;DHT22;11258;52.516;13.318;2022-09-21T19:04:13;13.20;99.90